createdAt,value
2023-01-08T00:00:06.601Z,2.20
2023-01-08T00:01:10.472Z,1.83
2023-01-08T00:02:12.375Z,1.95
2023-01-08T00:03:15.313Z,2.05
2023-01-08T00:04:18.797Z,2.03
2023-01-08T00:05:21.823Z,2.20
2023-01-08T00:06:25.374Z,1.95
2023-01-08T00:07:27.101Z,2.17
2023-01-08T00:08:30.234Z,1.90
2023-01-08T00:09:31.950Z,2.00
2023-01-08T00:10:34.646Z,2.20
2023-01-08T00:11:36.397Z,1.83
2023-01-08T00:12:39.187Z,1.80
2023-01-08T00:13:41.045Z,1.80
2023-01-08T00:14:43.750Z,2.22
2023-01-08T00:15:45.521Z,2.08
2023-01-08T00:16:48.353Z,2.00
2023-01-08T00:17:50.202Z,1.77
2023-01-08T00:18:52.858Z,2.20
2023-01-08T00:19:54.558Z,1.85
2023-01-08T00:21:01.673Z,1.80
2023-01-08T00:22:03.638Z,1.85
2023-01-08T00:23:06.302Z,2.33
2023-01-08T00:24:09.206Z,2.17
2023-01-08T00:25:10.856Z,2.20
2023-01-08T00:26:13.870Z,1.90
2023-01-08T00:27:15.568Z,2.08
2023-01-08T00:28:18.352Z,1.83
2023-01-08T00:29:20.211Z,1.77
2023-01-08T00:30:22.867Z,2.50
2023-01-08T00:31:25.676Z,2.10
2023-01-08T00:32:29.423Z,1.95
2023-01-08T00:33:32.321Z,2.13
2023-01-08T00:34:34.091Z,2.40
2023-01-08T00:35:37.185Z,2.25
2023-01-08T00:36:40.246Z,2.17
2023-01-08T00:37:42.910Z,2.47
2023-01-08T00:38:45.308Z,1.63
2023-01-08T00:39:48.367Z,2.00
2023-01-08T00:40:50.063Z,2.30
2023-01-08T00:41:52.690Z,2.17
2023-01-08T00:42:54.409Z,1.90
2023-01-08T00:43:57.074Z,1.90
2023-01-08T00:44:58.877Z,2.20
2023-01-08T00:46:01.984Z,2.00
2023-01-08T00:47:03.739Z,2.00
2023-01-08T00:48:07.274Z,2.10
2023-01-08T00:49:08.967Z,1.92
2023-01-08T00:50:11.774Z,2.05
2023-01-08T00:51:13.495Z,2.00
2023-01-08T00:52:17.535Z,2.22
2023-01-08T00:53:19.891Z,2.33
2023-01-08T00:54:22.518Z,1.83
2023-01-08T00:55:24.165Z,2.55
2023-01-08T00:56:26.919Z,2.30
2023-01-08T00:57:33.015Z,2.10
2023-01-08T00:58:36.070Z,2.20
2023-01-08T00:59:37.823Z,2.20
2023-01-08T01:00:41.130Z,2.00
2023-01-08T01:01:42.994Z,2.38
2023-01-08T01:02:45.790Z,2.55
2023-01-08T01:03:48.459Z,2.35
2023-01-08T01:04:50.328Z,2.10
2023-01-08T01:06:01.609Z,2.03
2023-01-08T01:07:03.660Z,2.15
2023-01-08T01:08:07.723Z,2.20
2023-01-08T01:09:09.559Z,1.98
2023-01-08T01:10:14.116Z,2.35
2023-01-08T01:11:19.203Z,2.22
2023-01-08T01:12:21.923Z,1.83
2023-01-08T01:13:26.206Z,2.15
2023-01-08T01:14:28.965Z,2.17
2023-01-08T01:15:30.819Z,2.17
2023-01-08T01:16:34.028Z,1.98
2023-01-08T01:17:37.925Z,2.17
2023-01-08T01:18:40.678Z,2.00
2023-01-08T01:19:43.453Z,1.80
2023-01-08T01:20:46.173Z,1.90
2023-01-08T01:21:47.875Z,2.00
2023-01-08T01:22:50.891Z,1.85
2023-01-08T01:23:56.172Z,1.52
2023-01-08T01:24:59.085Z,2.03
2023-01-08T01:26:00.746Z,1.90
2023-01-08T01:27:03.361Z,2.08
2023-01-08T01:28:05.378Z,1.73
2023-01-08T01:29:08.080Z,1.55
2023-01-08T01:30:11.015Z,1.58
2023-01-08T01:31:14.330Z,1.92
2023-01-08T01:32:16.220Z,1.70
2023-01-08T01:33:18.903Z,2.00
2023-01-08T01:34:21.602Z,2.03
2023-01-08T01:35:23.329Z,1.70
2023-01-08T01:36:26.422Z,2.15
2023-01-08T01:37:28.228Z,1.83
2023-01-08T01:38:31.215Z,1.90
2023-01-08T01:39:35.454Z,2.15
2023-01-08T01:40:41.642Z,2.05
2023-01-08T01:41:46.745Z,2.10
2023-01-08T01:42:48.429Z,2.00
2023-01-08T01:43:51.578Z,1.70
2023-01-08T01:44:53.357Z,2.00
2023-01-08T01:45:56.257Z,1.60
2023-01-08T01:46:58.004Z,1.90
2023-01-08T01:48:02.538Z,1.77
2023-01-08T01:49:09.656Z,2.28
2023-01-08T01:50:14.339Z,1.98
2023-01-08T01:51:16.081Z,1.98
2023-01-08T01:52:20.735Z,1.70
2023-01-08T01:53:24.046Z,2.17
2023-01-08T01:54:27.235Z,1.85
2023-01-08T01:55:31.187Z,1.75
2023-01-08T01:56:34.893Z,1.92
2023-01-08T01:57:37.420Z,1.63
2023-01-08T01:58:40.166Z,2.15
2023-01-08T01:59:42.339Z,2.00
2023-01-08T02:00:45.571Z,1.83
2023-01-08T02:01:47.917Z,1.63
2023-01-08T02:02:51.471Z,1.98
2023-01-08T02:03:53.153Z,2.00
2023-01-08T02:04:56.022Z,1.75
2023-01-08T02:06:00.945Z,1.92
2023-01-08T02:07:09.624Z,1.45
2023-01-08T02:08:13.200Z,2.08
2023-01-08T02:09:23.627Z,2.00
2023-01-08T02:10:32.580Z,2.15
2023-01-08T02:11:42.993Z,2.03
2023-01-08T02:12:46.251Z,1.83
2023-01-08T02:13:52.056Z,2.25
2023-01-08T02:15:00.532Z,2.00
2023-01-08T02:16:07.465Z,2.17
2023-01-08T02:17:11.266Z,1.92
2023-01-08T02:18:16.792Z,2.10
2023-01-08T02:19:30.207Z,2.35
2023-01-08T02:20:36.494Z,2.47
2023-01-08T02:21:50.318Z,2.20
2023-01-08T02:23:05.094Z,2.35
2023-01-08T02:24:14.702Z,2.03
2023-01-08T02:25:24.542Z,2.33
2023-01-08T02:26:29.780Z,2.17
2023-01-08T02:27:32.161Z,2.20
2023-01-08T02:28:38.965Z,2.08
2023-01-08T02:29:41.113Z,2.35
2023-01-08T02:30:44.147Z,2.08
2023-01-08T02:31:46.257Z,2.20
2023-01-08T02:32:49.045Z,2.20
2023-01-08T02:33:50.790Z,2.17
2023-01-08T02:34:53.503Z,2.03
2023-01-08T02:36:15.818Z,2.05
2023-01-08T02:37:18.583Z,2.20
2023-01-08T02:38:20.499Z,2.10
2023-01-08T02:39:55.612Z,2.50
2023-01-08T02:41:05.875Z,2.15
2023-01-08T02:42:13.345Z,2.58
2023-01-08T02:43:19.688Z,2.38
2023-01-08T02:44:25.541Z,2.42
2023-01-08T02:45:37.727Z,2.45
2023-01-08T02:46:40.691Z,2.10
2023-01-08T02:47:46.929Z,2.15
2023-01-08T02:48:51.246Z,2.20
2023-01-08T02:49:58.414Z,2.20
2023-01-08T02:51:04.130Z,2.25
2023-01-08T02:52:08.045Z,2.10
2023-01-08T02:53:14.334Z,2.35
2023-01-08T02:54:20.113Z,2.50
2023-01-08T02:55:24.677Z,2.13
2023-01-08T02:56:30.802Z,2.42
2023-01-08T02:57:34.386Z,2.33
2023-01-08T02:58:38.326Z,2.10
2023-01-08T02:59:40.917Z,2.40
2023-01-08T03:00:45.605Z,2.63
2023-01-08T03:01:47.679Z,2.28
2023-01-08T03:02:52.281Z,2.38
2023-01-08T03:03:57.583Z,2.20
2023-01-08T03:05:03.362Z,2.50
2023-01-08T03:06:08.195Z,2.63
2023-01-08T03:07:10.901Z,2.75
2023-01-08T03:08:12.782Z,2.40
2023-01-08T03:09:15.882Z,1.77
2023-01-08T03:10:18.233Z,2.47
2023-01-08T03:11:22.431Z,2.50
2023-01-08T03:12:28.097Z,2.35
2023-01-08T03:13:35.615Z,2.05
2023-01-08T03:14:41.385Z,2.17
2023-01-08T03:15:47.730Z,2.50
2023-01-08T03:16:53.176Z,2.20
2023-01-08T03:17:57.746Z,2.20
2023-01-08T03:19:03.355Z,2.10
2023-01-08T03:20:09.751Z,2.67
2023-01-08T03:21:12.403Z,2.40
2023-01-08T03:22:17.082Z,2.78
2023-01-08T03:23:20.896Z,2.30
2023-01-08T03:24:26.696Z,2.00
2023-01-08T03:25:31.559Z,2.30
2023-01-08T03:26:33.610Z,2.30
2023-01-08T03:27:40.076Z,2.47
2023-01-08T03:28:46.253Z,2.30
2023-01-08T03:29:50.380Z,2.10
2023-01-08T03:30:54.577Z,2.25
2023-01-08T03:31:58.891Z,2.05
2023-01-08T03:33:02.637Z,1.63
2023-01-08T03:34:04.796Z,2.33
2023-01-08T03:35:10.616Z,2.42
2023-01-08T03:36:14.935Z,2.00
2023-01-08T03:37:20.353Z,2.05
2023-01-08T03:38:26.101Z,1.92
2023-01-08T03:39:30.681Z,2.10
2023-01-08T03:40:36.935Z,1.95
2023-01-08T03:41:38.806Z,2.20
2023-01-08T03:42:41.808Z,2.15
2023-01-08T03:43:45.031Z,2.33
2023-01-08T03:44:47.937Z,2.10
2023-01-08T03:45:52.058Z,2.28
2023-01-08T03:46:56.534Z,1.90
2023-01-08T03:47:58.795Z,2.08
2023-01-08T03:49:02.114Z,1.88
2023-01-08T03:50:07.502Z,2.40
2023-01-08T03:51:10.570Z,2.17
2023-01-08T03:52:21.403Z,2.33
2023-01-08T03:53:24.094Z,1.88
2023-01-08T03:54:29.678Z,1.98
2023-01-08T03:55:32.336Z,1.92
2023-01-08T03:56:34.033Z,2.08
2023-01-08T03:57:36.685Z,2.20
2023-01-08T03:58:38.397Z,2.13
2023-01-08T03:59:42.452Z,1.98
2023-01-08T04:00:44.158Z,1.92
2023-01-08T04:01:47.079Z,2.08
2023-01-08T04:02:48.904Z,1.98
2023-01-08T04:03:51.575Z,1.73
2023-01-08T04:04:53.307Z,1.77
2023-01-08T04:05:56.048Z,1.80
2023-01-08T04:06:57.739Z,2.30
2023-01-08T04:08:00.547Z,2.10
2023-01-08T04:09:02.470Z,1.83
2023-01-08T04:10:06.417Z,1.77
2023-01-08T04:11:08.112Z,2.20
2023-01-08T04:12:10.949Z,2.10
2023-01-08T04:13:12.681Z,2.00
2023-01-08T04:14:15.357Z,1.95
2023-01-08T04:15:18.562Z,1.80
2023-01-08T04:16:21.210Z,2.28
2023-01-08T04:17:22.918Z,2.10
2023-01-08T04:18:25.607Z,2.38
2023-01-08T04:19:27.311Z,1.92
2023-01-08T04:20:30.024Z,2.00
2023-01-08T04:21:31.740Z,1.90
2023-01-08T04:22:34.519Z,1.73
2023-01-08T04:23:36.275Z,2.00
2023-01-08T04:24:39.065Z,2.15
2023-01-08T04:25:42.011Z,1.92
2023-01-08T04:26:43.835Z,1.90
2023-01-08T04:27:46.642Z,2.05
2023-01-08T04:28:48.439Z,2.08
2023-01-08T04:29:51.074Z,2.00
2023-01-08T04:30:54.157Z,2.25
2023-01-08T04:31:56.860Z,2.20
2023-01-08T04:32:58.547Z,2.20
2023-01-08T04:34:01.281Z,1.70
2023-01-08T04:35:03.023Z,1.80
2023-01-08T04:36:06.472Z,1.90
2023-01-08T04:37:09.197Z,1.90
2023-01-08T04:38:11.767Z,2.30
2023-01-08T04:39:14.502Z,2.10
2023-01-08T04:40:16.232Z,2.28
2023-01-08T04:41:19.346Z,2.15
2023-01-08T04:42:21.030Z,1.80
2023-01-08T04:43:23.658Z,2.22
2023-01-08T04:44:25.414Z,2.40
2023-01-08T04:45:28.097Z,2.00
2023-01-08T04:46:31.237Z,2.40
2023-01-08T04:47:34.079Z,2.47
2023-01-08T04:48:36.286Z,2.17
2023-01-08T04:49:38.981Z,2.13
2023-01-08T04:50:40.678Z,2.30
2023-01-08T04:51:43.309Z,2.40
2023-01-08T04:52:45.208Z,2.38
2023-01-08T04:53:48.293Z,2.47
2023-01-08T04:54:49.995Z,2.40
2023-01-08T04:55:52.854Z,2.03
2023-01-08T04:56:54.677Z,2.92
2023-01-08T04:57:57.386Z,2.88
2023-01-08T04:58:59.261Z,2.30
2023-01-08T05:00:01.933Z,2.42
2023-01-08T05:01:10.158Z,2.38
2023-01-08T05:02:14.497Z,2.30
2023-01-08T05:03:16.392Z,2.30
2023-01-08T05:04:19.159Z,2.08
2023-01-08T05:05:20.912Z,1.92
2023-01-08T05:06:23.639Z,1.80
2023-01-08T05:07:25.366Z,2.08
2023-01-08T05:08:28.051Z,2.03
2023-01-08T05:09:29.733Z,2.20
2023-01-08T05:10:32.441Z,2.00
2023-01-08T05:11:35.527Z,1.75
2023-01-08T05:12:38.243Z,1.85
2023-01-08T05:13:40.083Z,2.20
2023-01-08T05:14:42.744Z,1.80
2023-01-08T05:15:44.587Z,2.63
2023-01-08T05:16:47.519Z,1.80
2023-01-08T05:17:59.788Z,1.88
2023-01-08T05:19:02.565Z,1.85
2023-01-08T05:20:04.648Z,1.90
2023-01-08T05:21:07.317Z,1.60
2023-01-08T05:22:09.027Z,1.63
2023-01-08T05:23:11.746Z,1.90
2023-01-08T05:24:13.581Z,1.58
2023-01-08T05:25:16.391Z,1.50
2023-01-08T05:26:19.368Z,1.50
2023-01-08T05:27:22.140Z,1.60
2023-01-08T05:28:23.815Z,1.75
2023-01-08T05:29:26.486Z,1.70
2023-01-08T05:30:28.256Z,1.77
2023-01-08T05:31:31.012Z,1.70
2023-01-08T05:32:32.769Z,1.63
2023-01-08T05:33:36.863Z,1.52
2023-01-08T05:34:39.528Z,1.88
2023-01-08T05:35:41.240Z,1.55
2023-01-08T05:36:44.238Z,1.63
2023-01-08T05:37:45.932Z,2.00
2023-01-08T05:38:48.633Z,1.48
2023-01-08T05:39:50.320Z,1.50
2023-01-08T05:40:53.630Z,1.73
2023-01-08T05:41:55.300Z,1.60
2023-01-08T05:43:00.036Z,1.73
2023-01-08T05:44:02.689Z,2.10
2023-01-08T05:45:05.282Z,1.48
2023-01-08T05:46:08.181Z,1.60
2023-01-08T05:47:10.001Z,1.50
2023-01-08T05:48:12.690Z,1.73
2023-01-08T05:49:17.010Z,2.10
2023-01-08T05:50:19.813Z,1.67
2023-01-08T05:51:21.491Z,1.77
2023-01-08T05:52:24.256Z,1.20
2023-01-08T05:53:26.022Z,1.52
2023-01-08T05:54:28.702Z,1.73
2023-01-08T05:55:30.493Z,1.60
2023-01-08T05:56:33.133Z,1.75
2023-01-08T05:57:34.820Z,1.60
2023-01-08T05:58:37.915Z,1.80
2023-01-08T05:59:39.632Z,1.83
2023-01-08T06:00:42.373Z,1.40
2023-01-08T06:01:44.073Z,1.40
2023-01-08T06:02:48.048Z,1.60
2023-01-08T06:03:49.944Z,1.83
2023-01-08T06:04:54.003Z,1.45
2023-01-08T06:05:58.690Z,1.50
2023-01-08T06:07:01.513Z,1.27
2023-01-08T06:08:03.418Z,1.40
2023-01-08T06:09:06.129Z,1.50
2023-01-08T06:10:08.608Z,1.70
2023-01-08T06:11:12.538Z,1.63
2023-01-08T06:12:14.208Z,1.50
2023-01-08T06:13:16.868Z,1.48
2023-01-08T06:14:18.734Z,1.70
2023-01-08T06:15:21.471Z,1.70
2023-01-08T06:16:23.246Z,1.15
2023-01-08T06:17:26.067Z,1.48
2023-01-08T06:18:27.873Z,1.58
2023-01-08T06:19:30.579Z,0.90
2023-01-08T06:20:33.719Z,1.20
2023-01-08T06:21:36.383Z,1.30
2023-01-08T06:22:38.128Z,1.30
2023-01-08T06:23:40.871Z,1.20
2023-01-08T06:24:42.599Z,1.38
2023-01-08T06:25:45.403Z,1.40
2023-01-08T06:26:47.139Z,1.40
2023-01-08T06:27:52.004Z,1.70
2023-01-08T06:28:54.661Z,1.52
2023-01-08T06:29:56.406Z,1.65
2023-01-08T06:30:59.264Z,1.63
2023-01-08T06:32:00.987Z,1.40
2023-01-08T06:33:03.831Z,1.35
2023-01-08T06:34:06.541Z,1.50
2023-01-08T06:35:09.073Z,1.45
2023-01-08T06:36:13.127Z,1.48
2023-01-08T06:37:15.139Z,1.40
2023-01-08T06:38:19.225Z,1.73
2023-01-08T06:39:21.106Z,1.20
2023-01-08T06:40:23.928Z,1.33
2023-01-08T06:41:26.587Z,1.20
2023-01-08T06:42:28.309Z,1.20
2023-01-08T06:43:30.971Z,1.40
2023-01-08T06:44:32.681Z,1.50
2023-01-08T06:45:35.351Z,1.42
2023-01-08T06:46:40.251Z,1.40
2023-01-08T06:47:43.009Z,1.45
2023-01-08T06:48:45.054Z,1.00
2023-01-08T06:49:47.786Z,1.08
2023-01-08T06:50:49.632Z,1.20
2023-01-08T06:51:53.711Z,1.02
2023-01-08T06:52:56.208Z,1.50
2023-01-08T06:53:58.952Z,1.35
2023-01-08T06:55:00.716Z,1.00
2023-01-08T06:56:04.513Z,1.27
2023-01-08T06:57:06.258Z,1.30
2023-01-08T06:58:08.976Z,1.05
2023-01-08T06:59:10.842Z,1.20
2023-01-08T07:00:14.389Z,1.10
2023-01-08T07:01:17.170Z,1.38
2023-01-08T07:02:20.619Z,1.27
2023-01-08T07:03:23.280Z,1.00
2023-01-08T07:04:26.159Z,1.20
2023-01-08T07:05:27.977Z,1.10
2023-01-08T07:06:30.657Z,1.10
2023-01-08T07:07:34.183Z,1.50
2023-01-08T07:08:36.982Z,1.20
2023-01-08T07:09:38.645Z,1.15
2023-01-08T07:10:45.426Z,1.15
2023-01-08T07:11:47.175Z,1.20
2023-01-08T07:12:50.129Z,1.27
2023-01-08T07:13:52.309Z,1.13
2023-01-08T07:14:55.011Z,1.15
2023-01-08T07:15:56.748Z,1.58
2023-01-08T07:16:59.416Z,1.33
2023-01-08T07:18:01.195Z,1.10
2023-01-08T07:19:06.231Z,1.30
2023-01-08T07:20:09.763Z,1.30
2023-01-08T07:21:12.421Z,1.70
2023-01-08T07:22:14.158Z,1.70
2023-01-08T07:23:18.338Z,1.30
2023-01-08T07:24:19.999Z,1.55
2023-01-08T07:25:24.131Z,1.50
2023-01-08T07:26:27.695Z,1.55
2023-01-08T07:27:30.333Z,1.70
2023-01-08T07:28:32.279Z,1.63
2023-01-08T07:29:34.928Z,1.40
2023-01-08T07:30:36.572Z,1.52
2023-01-08T07:31:39.344Z,1.40
2023-01-08T07:32:42.144Z,1.63
2023-01-08T07:33:43.904Z,1.42
2023-01-08T07:34:46.601Z,1.40
2023-01-08T07:35:52.334Z,1.65
2023-01-08T07:36:55.045Z,1.50
2023-01-08T07:37:57.052Z,1.88
2023-01-08T07:39:01.402Z,1.70
2023-01-08T07:40:03.204Z,1.48
2023-01-08T07:41:06.244Z,1.58
2023-01-08T07:42:07.966Z,1.50
2023-01-08T07:43:12.429Z,1.90
2023-01-08T07:44:15.225Z,1.95
2023-01-08T07:45:16.927Z,1.25
2023-01-08T07:46:19.656Z,1.75
2023-01-08T07:47:21.465Z,1.40
2023-01-08T07:48:24.211Z,1.70
2023-01-08T07:49:25.892Z,1.63
2023-01-08T07:50:28.848Z,1.70
2023-01-08T07:51:31.617Z,1.60
2023-01-08T07:52:34.381Z,1.80
2023-01-08T07:53:38.041Z,1.60
2023-01-08T07:54:41.493Z,1.65
2023-01-08T07:55:44.294Z,1.50
2023-01-08T07:56:46.362Z,1.55
2023-01-08T07:57:49.016Z,1.60
2023-01-08T07:58:50.910Z,1.70
2023-01-08T07:59:53.539Z,1.63
2023-01-08T08:00:55.227Z,1.42
2023-01-08T08:01:58.065Z,1.50
2023-01-08T08:03:03.374Z,1.50
2023-01-08T08:04:06.127Z,1.40
2023-01-08T08:05:08.628Z,1.60
2023-01-08T08:06:11.292Z,1.50
2023-01-08T08:07:12.937Z,1.70
2023-01-08T08:08:15.808Z,1.50
2023-01-08T08:09:17.581Z,1.30
2023-01-08T08:10:21.586Z,1.60
2023-01-08T08:11:24.327Z,1.73
2023-01-08T08:12:25.966Z,1.35
2023-01-08T08:13:28.921Z,1.52
2023-01-08T08:14:30.725Z,1.60
2023-01-08T08:15:34.129Z,1.73
2023-01-08T08:16:36.940Z,1.92
2023-01-08T08:17:38.780Z,1.60
2023-01-08T08:18:41.425Z,1.20
2023-01-08T08:19:44.169Z,1.50
2023-01-08T08:20:47.314Z,1.38
2023-01-08T08:21:49.999Z,1.30
2023-01-08T08:22:51.672Z,1.55
2023-01-08T08:23:54.329Z,1.17
2023-01-08T08:24:56.142Z,1.35
2023-01-08T08:26:00.157Z,1.60
2023-01-08T08:27:01.828Z,1.17
2023-01-08T08:28:05.748Z,1.50
2023-01-08T08:29:07.522Z,1.30
2023-01-08T08:30:11.578Z,1.42
2023-01-08T08:31:14.367Z,1.17
2023-01-08T08:32:16.090Z,1.20
2023-01-08T08:33:18.785Z,1.38
2023-01-08T08:34:22.537Z,1.40
2023-01-08T08:35:24.249Z,1.50
2023-01-08T08:36:29.598Z,1.40
2023-01-08T08:37:32.279Z,1.40
2023-01-08T08:38:37.808Z,1.50
2023-01-08T08:39:39.459Z,1.50
2023-01-08T08:40:42.916Z,1.40
2023-01-08T08:41:46.951Z,1.42
2023-01-08T08:42:48.660Z,1.23
2023-01-08T08:43:51.628Z,1.60
2023-01-08T08:44:53.372Z,1.73
2023-01-08T08:45:56.706Z,1.58
2023-01-08T08:46:59.530Z,1.40
2023-01-08T08:48:02.217Z,1.58
2023-01-08T08:49:04.926Z,1.95
2023-01-08T08:50:07.737Z,1.85
2023-01-08T08:51:10.534Z,1.70
2023-01-08T08:52:12.179Z,1.90
2023-01-08T08:53:14.975Z,1.77
2023-01-08T08:54:16.716Z,1.95
2023-01-08T08:55:20.316Z,1.90
2023-01-08T08:56:22.969Z,1.70
2023-01-08T08:57:27.728Z,1.88
2023-01-08T08:58:30.484Z,1.67
2023-01-08T08:59:32.155Z,1.67
2023-01-08T09:00:35.237Z,1.45
2023-01-08T09:01:38.024Z,1.50
2023-01-08T09:02:40.068Z,1.80
2023-01-08T09:03:42.930Z,1.30
2023-01-08T09:04:44.687Z,1.88
2023-01-08T09:05:47.398Z,1.42
2023-01-08T09:06:49.150Z,1.77
2023-01-08T09:07:51.916Z,1.60
2023-01-08T09:08:55.255Z,1.65
2023-01-08T09:09:57.932Z,1.67
2023-01-08T09:11:00.632Z,1.67
2023-01-08T09:12:04.030Z,1.45
2023-01-08T09:13:08.075Z,1.70
2023-01-08T09:14:12.275Z,1.20
2023-01-08T09:15:14.963Z,1.38
2023-01-08T09:16:17.762Z,1.55
2023-01-08T09:17:21.371Z,1.48
2023-01-08T09:18:24.033Z,1.70
2023-01-08T09:19:25.817Z,1.67
2023-01-08T09:20:29.325Z,2.05
2023-01-08T09:21:31.017Z,1.73
2023-01-08T09:22:34.187Z,1.83
2023-01-08T09:23:36.136Z,1.40
2023-01-08T09:24:38.807Z,1.58
2023-01-08T09:25:41.476Z,1.80
2023-01-08T09:26:43.199Z,1.40
2023-01-08T09:27:45.907Z,1.50
2023-01-08T09:28:49.979Z,2.00
2023-01-08T09:29:52.673Z,1.70
2023-01-08T09:30:55.434Z,2.00
2023-01-08T09:31:59.832Z,1.80
2023-01-08T09:33:03.526Z,1.63
2023-01-08T09:34:06.238Z,1.80
2023-01-08T09:35:11.398Z,1.63
2023-01-08T09:36:14.119Z,1.80
2023-01-08T09:37:16.813Z,1.90
2023-01-08T09:38:18.543Z,1.77
2023-01-08T09:39:21.243Z,2.10
2023-01-08T09:40:26.685Z,1.90
2023-01-08T09:41:30.819Z,1.60
2023-01-08T09:42:34.008Z,1.80
2023-01-08T09:43:37.581Z,1.90
2023-01-08T09:44:44.458Z,1.58
2023-01-08T09:45:50.184Z,1.85
2023-01-08T09:46:55.400Z,1.90
2023-01-08T09:47:59.718Z,2.00
2023-01-08T09:49:06.347Z,1.48
2023-01-08T09:50:12.797Z,1.65
2023-01-08T09:51:17.398Z,1.70
2023-01-08T09:52:20.061Z,1.80
2023-01-08T09:53:21.904Z,1.50
2023-01-08T09:54:26.101Z,1.33
2023-01-08T09:55:30.936Z,1.58
2023-01-08T09:56:35.111Z,1.85
2023-01-08T09:57:37.864Z,1.65
2023-01-08T09:58:41.092Z,1.70
2023-01-08T09:59:47.502Z,1.50
2023-01-08T10:00:50.495Z,1.77
2023-01-08T10:01:53.668Z,1.83
2023-01-08T10:02:55.777Z,1.63
2023-01-08T10:04:01.386Z,1.60
2023-01-08T10:05:05.601Z,1.70
2023-01-08T10:06:11.552Z,1.58
2023-01-08T10:07:21.327Z,1.50
2023-01-08T10:08:23.067Z,1.65
2023-01-08T10:09:27.878Z,1.70
2023-01-08T10:10:32.049Z,1.60
2023-01-08T10:11:38.570Z,1.60
2023-01-08T10:12:41.921Z,1.52
2023-01-08T10:13:46.914Z,1.33
2023-01-08T10:14:53.056Z,1.80
2023-01-08T10:15:56.413Z,1.45
2023-01-08T10:17:01.751Z,1.60
2023-01-08T10:18:06.044Z,1.33
2023-01-08T10:19:10.052Z,1.48
2023-01-08T10:20:14.174Z,1.65
2023-01-08T10:21:15.901Z,1.70
2023-01-08T10:22:21.900Z,1.67
2023-01-08T10:23:25.551Z,1.50
2023-01-08T10:24:35.660Z,1.70
2023-01-08T10:25:49.827Z,1.65
2023-01-08T10:26:54.370Z,1.70
2023-01-08T10:27:59.909Z,1.40
2023-01-08T10:29:10.182Z,1.50
2023-01-08T10:30:18.373Z,1.38
2023-01-08T10:31:21.100Z,1.40
2023-01-08T10:32:27.110Z,1.50
2023-01-08T10:33:31.569Z,1.58
2023-01-08T10:34:42.748Z,1.42
2023-01-08T10:35:53.926Z,1.40
2023-01-08T10:36:56.232Z,1.33
2023-01-08T10:37:58.905Z,1.50
2023-01-08T10:39:02.761Z,1.52
2023-01-08T10:40:15.373Z,1.30
2023-01-08T10:41:17.953Z,1.63
2023-01-08T10:42:22.518Z,1.67
2023-01-08T10:43:28.691Z,1.50
2023-01-08T10:44:30.810Z,1.20
2023-01-08T10:45:35.382Z,1.27
2023-01-08T10:46:42.414Z,1.38
2023-01-08T10:47:47.882Z,1.40
2023-01-08T10:48:52.734Z,1.15
2023-01-08T10:49:55.687Z,1.40
2023-01-08T10:51:07.088Z,1.00
2023-01-08T10:52:24.446Z,1.42
2023-01-08T10:53:30.050Z,1.80
2023-01-08T10:54:35.463Z,1.85
2023-01-08T10:55:39.739Z,1.38
2023-01-08T10:56:43.020Z,1.35
2023-01-08T10:57:55.029Z,1.50
2023-01-08T10:58:58.248Z,1.15
2023-01-08T11:00:00.960Z,1.40
2023-01-08T11:01:12.693Z,1.27
2023-01-08T11:02:22.794Z,1.52
2023-01-08T11:03:30.682Z,1.40
2023-01-08T11:04:35.450Z,1.17
2023-01-08T11:05:39.786Z,1.33
2023-01-08T11:06:45.337Z,1.45
2023-01-08T11:07:53.335Z,1.40
2023-01-08T11:08:58.496Z,1.55
2023-01-08T11:10:01.314Z,1.50
2023-01-08T11:11:04.096Z,1.13
2023-01-08T11:12:25.913Z,1.80
2023-01-08T11:13:29.908Z,1.48
2023-01-08T11:14:34.491Z,1.52
2023-01-08T11:15:39.729Z,1.23
2023-01-08T11:16:43.179Z,1.42
2023-01-08T11:17:46.124Z,1.42
2023-01-08T11:18:50.111Z,1.25
2023-01-08T11:19:55.723Z,1.30
2023-01-08T11:21:08.880Z,1.75
2023-01-08T11:22:20.099Z,1.40
2023-01-08T11:23:23.569Z,1.35
2023-01-08T11:24:34.608Z,1.23
2023-01-08T11:25:36.532Z,1.38
2023-01-08T11:26:40.470Z,1.58
2023-01-08T11:27:45.645Z,1.42
2023-01-08T11:28:52.830Z,1.50
2023-01-08T11:29:59.836Z,1.00
2023-01-08T11:31:11.537Z,1.23
2023-01-08T11:32:29.088Z,1.10
2023-01-08T11:33:33.295Z,1.20
2023-01-08T11:34:39.324Z,1.30
2023-01-08T11:35:44.776Z,1.30
2023-01-08T11:36:50.373Z,1.25
2023-01-08T11:37:55.453Z,1.33
2023-01-08T11:38:58.162Z,1.10
2023-01-08T11:40:01.009Z,1.25
2023-01-08T11:41:10.121Z,1.27
2023-01-08T11:42:22.161Z,1.00
2023-01-08T11:43:28.070Z,1.25
2023-01-08T11:44:37.084Z,1.20
2023-01-08T11:45:51.346Z,1.00
2023-01-08T11:47:02.885Z,1.10
2023-01-08T11:48:20.667Z,1.08
2023-01-08T11:49:34.024Z,1.10
2023-01-08T11:50:43.116Z,1.00
2023-01-08T11:51:55.327Z,1.17
2023-01-08T11:53:07.593Z,0.88
2023-01-08T11:54:20.472Z,1.00
2023-01-08T11:55:33.731Z,0.93
2023-01-08T11:56:48.911Z,1.05
2023-01-08T11:58:03.421Z,1.00
2023-01-08T11:59:14.439Z,0.90
2023-01-08T12:00:31.160Z,0.82
2023-01-08T12:01:43.869Z,0.80
2023-01-08T12:02:51.593Z,1.00
2023-01-08T12:04:05.406Z,0.98
2023-01-08T12:05:24.859Z,0.98
2023-01-08T12:06:37.147Z,0.82
2023-01-08T12:07:44.918Z,0.93
2023-01-08T12:08:53.848Z,0.80
2023-01-08T12:09:59.752Z,0.90
2023-01-08T12:11:08.524Z,1.00
2023-01-08T12:12:20.476Z,0.90
2023-01-08T12:13:39.803Z,1.08
2023-01-08T12:14:53.569Z,1.10
2023-01-08T12:16:02.777Z,1.00
2023-01-08T12:17:17.858Z,0.90
2023-01-08T12:18:36.792Z,1.00
2023-01-08T12:19:52.610Z,0.98
2023-01-08T12:21:01.064Z,0.90
2023-01-08T12:22:14.354Z,1.10
2023-01-08T12:23:29.001Z,0.80
2023-01-08T12:24:53.453Z,1.15
2023-01-08T12:26:10.002Z,0.90
2023-01-08T12:27:19.476Z,0.90
2023-01-08T12:28:35.724Z,0.73
2023-01-08T12:29:48.678Z,0.90
2023-01-08T12:31:04.870Z,0.80
2023-01-08T12:32:25.704Z,0.77
2023-01-08T12:33:35.897Z,0.82
2023-01-08T12:34:46.296Z,0.70
2023-01-08T12:35:51.039Z,0.82
2023-01-08T12:36:54.770Z,1.20
2023-01-08T12:38:00.369Z,0.95
2023-01-08T12:39:06.065Z,1.15
2023-01-08T12:40:15.092Z,1.00
2023-01-08T12:41:19.867Z,1.10
2023-01-08T12:42:25.431Z,0.60
2023-01-08T12:43:31.643Z,0.80
2023-01-08T12:44:33.641Z,0.70
2023-01-08T12:45:40.224Z,0.90
2023-01-08T12:46:45.986Z,1.05
2023-01-08T12:47:49.698Z,0.90
2023-01-08T12:48:54.447Z,0.80
2023-01-08T12:50:05.468Z,0.80
2023-01-08T12:51:10.995Z,0.75
2023-01-08T12:52:18.069Z,0.90
2023-01-08T12:53:27.144Z,0.80
2023-01-08T12:54:32.239Z,0.57
2023-01-08T12:55:41.393Z,0.70
2023-01-08T12:56:47.707Z,0.90
2023-01-08T12:57:53.767Z,0.95
2023-01-08T12:59:09.510Z,1.00
2023-01-08T13:00:19.874Z,0.98
2023-01-08T13:01:28.587Z,0.90
2023-01-08T13:02:37.417Z,0.80
2023-01-08T13:03:39.377Z,0.70
2023-01-08T13:04:43.253Z,0.93
2023-01-08T13:05:47.417Z,1.10
2023-01-08T13:07:01.335Z,1.27
2023-01-08T13:08:05.484Z,0.90
2023-01-08T13:09:08.177Z,1.30
2023-01-08T13:10:36.644Z,0.60
2023-01-08T13:11:42.191Z,0.70
2023-01-08T13:12:44.928Z,0.90
2023-01-08T13:13:47.656Z,0.80
2023-01-08T13:14:51.486Z,0.73
2023-01-08T13:15:54.206Z,0.93
2023-01-08T13:17:04.878Z,0.90
2023-01-08T13:18:15.763Z,0.80
2023-01-08T13:19:26.156Z,0.88
2023-01-08T13:20:30.307Z,0.90
2023-01-08T13:21:36.416Z,0.88
2023-01-08T13:22:39.356Z,0.88
2023-01-08T13:23:41.114Z,1.00
2023-01-08T13:24:53.474Z,1.00
2023-01-08T13:25:55.990Z,0.90
2023-01-08T13:27:11.733Z,1.10
2023-01-08T13:28:27.967Z,0.88
2023-01-08T13:29:39.621Z,0.82
2023-01-08T13:30:46.273Z,1.13
2023-01-08T13:31:49.149Z,0.70
2023-01-08T13:32:51.934Z,1.05
2023-01-08T13:33:55.372Z,0.98
2023-01-08T13:35:21.145Z,0.80
2023-01-08T13:36:25.920Z,0.88
2023-01-08T13:37:29.006Z,0.98
2023-01-08T13:38:31.734Z,0.75
2023-01-08T13:39:36.913Z,0.90
2023-01-08T13:40:52.398Z,1.00
2023-01-08T13:42:01.124Z,1.80
2023-01-08T13:43:05.541Z,1.10
2023-01-08T13:44:17.352Z,1.25
2023-01-08T13:45:20.132Z,1.08
2023-01-08T13:46:21.957Z,0.95
2023-01-08T13:47:30.957Z,1.70
2023-01-08T13:48:35.561Z,0.80
2023-01-08T13:49:43.547Z,0.90
2023-01-08T13:50:46.814Z,1.08
2023-01-08T13:51:50.294Z,1.02
2023-01-08T13:52:58.679Z,0.93
2023-01-08T13:54:06.888Z,1.00
2023-01-08T13:55:16.151Z,1.00
2023-01-08T13:56:21.319Z,0.95
2023-01-08T13:57:24.602Z,0.88
2023-01-08T13:58:30.917Z,0.98
2023-01-08T13:59:38.980Z,0.90
2023-01-08T14:00:46.734Z,0.90
2023-01-08T14:01:55.556Z,0.82
2023-01-08T14:02:58.478Z,0.90
2023-01-08T14:04:00.349Z,1.10
2023-01-08T14:05:03.961Z,0.98
2023-01-08T14:06:07.105Z,0.93
2023-01-08T14:07:14.171Z,0.80
2023-01-08T14:08:24.019Z,1.13
2023-01-08T14:09:26.705Z,1.05
2023-01-08T14:10:30.150Z,1.15
2023-01-08T14:11:44.435Z,0.93
2023-01-08T14:12:46.814Z,0.80
2023-01-08T14:13:49.713Z,1.10
2023-01-08T14:14:52.897Z,1.00
2023-01-08T14:15:56.766Z,0.75
2023-01-08T14:16:58.964Z,0.95
2023-01-08T14:18:02.601Z,0.80
2023-01-08T14:19:05.017Z,0.98